sensor_id;sensor_type;location;lat;lon;timestamp;temperature;humidity
11704;DHT22;5908;51.354;7.458;2023-06-22T00:00:32;23.00;91.90
11704;DHT22;5908;51.354;7.458;2023-06-22T00:02:59;23.00;92.00
11704;DHT22;5908;51.354;7.458;2023-06-22T00:05:27;22.90;92.20
11704;DHT22;5908;51.354;7.458;2023-06-22T00:07:53;22.90;92.30
11704;DHT22;5908;51.354;7.458;2023-06-22T00:10:20;22.90;92.30
11704;DHT22;5908;51.354;7.458;2023-06-22T00:12:47;22.90;92.50
11704;DHT22;5908;51.354;7.458;2023-06-22T00:15:14;22.90;92.40
11704;DHT22;5908;51.354;7.458;2023-06-22T00:17:40;22.90;92.40
11704;DHT22;5908;51.354;7.458;2023-06-22T00:20:08;22.90;92.50
11704;DHT22;5908;51.354;7.458;2023-06-22T00:22:37;22.90;92.60
11704;DHT22;5908;51.354;7.458;2023-06-22T00:25:06;22.80;92.90
11704;DHT22;5908;51.354;7.458;2023-06-22T00:27:33;22.80;92.90
11704;DHT22;5908;51.354;7.458;2023-06-22T00:29:59;22.80;93.00
11704;DHT22;5908;51.354;7.458;2023-06-22T00:32:26;22.80;93.20
11704;DHT22;5908;51.354;7.458;2023-06-22T00:34:53;22.70;93.20
11704;DHT22;5908;51.354;7.458;2023-06-22T00:37:20;22.70;93.20
11704;DHT22;5908;51.354;7.458;2023-06-22T00:39:52;22.70;93.50
11704;DHT22;5908;51.354;7.458;2023-06-22T00:42:19;23.10;92.50
11704;DHT22;5908;51.354;7.458;2023-06-22T00:44:45;23.40;92.10
11704;DHT22;5908;51.354;7.458;2023-06-22T00:47:14;23.50;91.80
11704;DHT22;5908;51.354;7.458;2023-06-22T00:49:42;23.70;91.40
11704;DHT22;5908;51.354;7.458;2023-06-22T00:52:10;23.70;91.10
11704;DHT22;5908;51.354;7.458;2023-06-22T00:54:40;23.70;90.70
11704;DHT22;5908;51.354;7.458;2023-06-22T00:57:12;23.70;90.60
11704;DHT22;5908;51.354;7.458;2023-06-22T00:59:42;23.70;90.70
11704;DHT22;5908;51.354;7.458;2023-06-22T01:02:08;23.70;91.00
11704;DHT22;5908;51.354;7.458;2023-06-22T01:04:37;23.70;91.10
11704;DHT22;5908;51.354;7.458;2023-06-22T01:07:13;23.70;91.00
11704;DHT22;5908;51.354;7.458;2023-06-22T01:09:49;23.80;91.00
11704;DHT22;5908;51.354;7.458;2023-06-22T01:12:18;23.80;91.00
11704;DHT22;5908;51.354;7.458;2023-06-22T01:14:50;23.80;91.00
11704;DHT22;5908;51.354;7.458;2023-06-22T01:17:19;23.90;91.10
11704;DHT22;5908;51.354;7.458;2023-06-22T01:19:49;23.70;90.90
11704;DHT22;5908;51.354;7.458;2023-06-22T01:22:22;23.70;91.10
11704;DHT22;5908;51.354;7.458;2023-06-22T01:24:56;23.70;91.20
11704;DHT22;5908;51.354;7.458;2023-06-22T01:27:33;23.70;91.20
11704;DHT22;5908;51.354;7.458;2023-06-22T01:30:05;23.70;91.20
11704;DHT22;5908;51.354;7.458;2023-06-22T01:32:34;23.70;91.30
11704;DHT22;5908;51.354;7.458;2023-06-22T01:35:04;23.60;91.30
11704;DHT22;5908;51.354;7.458;2023-06-22T01:37:32;23.70;91.30
11704;DHT22;5908;51.354;7.458;2023-06-22T01:40:00;23.70;91.40
11704;DHT22;5908;51.354;7.458;2023-06-22T01:42:30;23.70;91.40
11704;DHT22;5908;51.354;7.458;2023-06-22T01:44:58;23.60;91.50
11704;DHT22;5908;51.354;7.458;2023-06-22T01:47:27;23.60;91.60
11704;DHT22;5908;51.354;7.458;2023-06-22T01:49:54;23.60;91.60
11704;DHT22;5908;51.354;7.458;2023-06-22T01:52:21;23.60;91.60
11704;DHT22;5908;51.354;7.458;2023-06-22T01:54:48;23.50;91.70
11704;DHT22;5908;51.354;7.458;2023-06-22T01:57:15;23.60;91.70
11704;DHT22;5908;51.354;7.458;2023-06-22T01:59:48;23.60;91.60
11704;DHT22;5908;51.354;7.458;2023-06-22T02:02:19;23.60;91.60
11704;DHT22;5908;51.354;7.458;2023-06-22T02:04:57;23.50;91.80
11704;DHT22;5908;51.354;7.458;2023-06-22T02:07:29;23.50;91.90
11704;DHT22;5908;51.354;7.458;2023-06-22T02:09:59;23.50;91.80
11704;DHT22;5908;51.354;7.458;2023-06-22T02:12:28;23.50;91.90
11704;DHT22;5908;51.354;7.458;2023-06-22T02:14:56;23.40;92.00
11704;DHT22;5908;51.354;7.458;2023-06-22T02:17:24;23.40;92.10
11704;DHT22;5908;51.354;7.458;2023-06-22T02:19:53;23.30;92.40
11704;DHT22;5908;51.354;7.458;2023-06-22T02:22:19;23.40;92.10
11704;DHT22;5908;51.354;7.458;2023-06-22T02:24:46;23.40;92.20
11704;DHT22;5908;51.354;7.458;2023-06-22T02:27:13;23.40;92.20
11704;DHT22;5908;51.354;7.458;2023-06-22T02:29:39;23.40;92.20
11704;DHT22;5908;51.354;7.458;2023-06-22T02:32:07;23.40;91.90
11704;DHT22;5908;51.354;7.458;2023-06-22T02:34:34;23.40;91.80
11704;DHT22;5908;51.354;7.458;2023-06-22T02:37:03;23.40;91.70
11704;DHT22;5908;51.354;7.458;2023-06-22T02:39:30;23.40;91.90
11704;DHT22;5908;51.354;7.458;2023-06-22T02:41:57;23.40;91.90
11704;DHT22;5908;51.354;7.458;2023-06-22T02:44:24;23.30;91.80
11704;DHT22;5908;51.354;7.458;2023-06-22T02:46:51;23.20;92.00
11704;DHT22;5908;51.354;7.458;2023-06-22T02:49:17;23.20;92.60
11704;DHT22;5908;51.354;7.458;2023-06-22T02:51:46;23.10;92.30
11704;DHT22;5908;51.354;7.458;2023-06-22T02:54:14;23.10;92.30
11704;DHT22;5908;51.354;7.458;2023-06-22T02:56:41;23.00;92.50
11704;DHT22;5908;51.354;7.458;2023-06-22T02:59:09;23.00;92.40
11704;DHT22;5908;51.354;7.458;2023-06-22T03:01:36;23.00;92.60
11704;DHT22;5908;51.354;7.458;2023-06-22T03:04:05;22.90;92.70
11704;DHT22;5908;51.354;7.458;2023-06-22T03:06:32;22.90;92.90
11704;DHT22;5908;51.354;7.458;2023-06-22T03:09:00;22.90;92.70
11704;DHT22;5908;51.354;7.458;2023-06-22T03:11:28;22.90;92.70
11704;DHT22;5908;51.354;7.458;2023-06-22T03:13:55;22.90;92.90
11704;DHT22;5908;51.354;7.458;2023-06-22T03:16:22;22.90;92.90
11704;DHT22;5908;51.354;7.458;2023-06-22T03:18:48;22.80;93.00
11704;DHT22;5908;51.354;7.458;2023-06-22T03:21:15;22.80;93.00
11704;DHT22;5908;51.354;7.458;2023-06-22T03:23:42;22.70;93.10
11704;DHT22;5908;51.354;7.458;2023-06-22T03:26:09;22.80;93.10
11704;DHT22;5908;51.354;7.458;2023-06-22T03:28:38;22.80;93.20
11704;DHT22;5908;51.354;7.458;2023-06-22T03:31:05;22.90;93.10
11704;DHT22;5908;51.354;7.458;2023-06-22T03:33:33;22.90;93.10
11704;DHT22;5908;51.354;7.458;2023-06-22T03:35:59;23.00;92.90
11704;DHT22;5908;51.354;7.458;2023-06-22T03:38:26;23.00;92.80
11704;DHT22;5908;51.354;7.458;2023-06-22T03:40:53;23.10;92.60
11704;DHT22;5908;51.354;7.458;2023-06-22T03:43:19;23.10;92.60
11704;DHT22;5908;51.354;7.458;2023-06-22T03:45:47;23.20;92.50
11704;DHT22;5908;51.354;7.458;2023-06-22T03:48:14;23.20;92.20
11704;DHT22;5908;51.354;7.458;2023-06-22T03:50:41;23.20;92.20
11704;DHT22;5908;51.354;7.458;2023-06-22T03:53:09;23.20;92.20
11704;DHT22;5908;51.354;7.458;2023-06-22T03:55:36;23.20;92.10
11704;DHT22;5908;51.354;7.458;2023-06-22T03:58:03;23.30;92.20
11704;DHT22;5908;51.354;7.458;2023-06-22T04:00:31;23.30;92.00
11704;DHT22;5908;51.354;7.458;2023-06-22T04:02:59;23.40;92.00
11704;DHT22;5908;51.354;7.458;2023-06-22T04:05:26;23.50;91.90
11704;DHT22;5908;51.354;7.458;2023-06-22T04:07:52;23.60;91.80
11704;DHT22;5908;51.354;7.458;2023-06-22T04:10:19;23.80;91.70
11704;DHT22;5908;51.354;7.458;2023-06-22T04:12:46;23.80;91.00
11704;DHT22;5908;51.354;7.458;2023-06-22T04:15:13;23.70;91.10
11704;DHT22;5908;51.354;7.458;2023-06-22T04:17:40;23.70;91.30
11704;DHT22;5908;51.354;7.458;2023-06-22T04:20:09;23.60;91.30
11704;DHT22;5908;51.354;7.458;2023-06-22T04:22:36;23.50;91.80
11704;DHT22;5908;51.354;7.458;2023-06-22T04:25:03;23.50;91.70
11704;DHT22;5908;51.354;7.458;2023-06-22T04:27:29;23.50;91.60
11704;DHT22;5908;51.354;7.458;2023-06-22T04:29:56;23.50;91.70
11704;DHT22;5908;51.354;7.458;2023-06-22T04:32:25;23.60;91.30
11704;DHT22;5908;51.354;7.458;2023-06-22T04:34:52;23.70;91.40
11704;DHT22;5908;51.354;7.458;2023-06-22T04:37:20;23.70;91.10
11704;DHT22;5908;51.354;7.458;2023-06-22T04:39:48;23.60;91.40
11704;DHT22;5908;51.354;7.458;2023-06-22T04:42:15;23.50;91.60
11704;DHT22;5908;51.354;7.458;2023-06-22T04:44:42;23.50;91.60
11704;DHT22;5908;51.354;7.458;2023-06-22T04:47:09;23.70;91.00
11704;DHT22;5908;51.354;7.458;2023-06-22T04:49:36;23.70;91.00
11704;DHT22;5908;51.354;7.458;2023-06-22T04:52:04;23.60;91.00
11704;DHT22;5908;51.354;7.458;2023-06-22T04:54:33;23.60;91.20
11704;DHT22;5908;51.354;7.458;2023-06-22T04:57:01;23.50;91.40
11704;DHT22;5908;51.354;7.458;2023-06-22T04:59:30;23.40;91.80
11704;DHT22;5908;51.354;7.458;2023-06-22T05:01:57;23.40;91.60
11704;DHT22;5908;51.354;7.458;2023-06-22T05:04:25;23.30;91.70
11704;DHT22;5908;51.354;7.458;2023-06-22T05:06:53;23.30;91.80
11704;DHT22;5908;51.354;7.458;2023-06-22T05:09:20;23.40;91.80
11704;DHT22;5908;51.354;7.458;2023-06-22T05:11:49;23.40;91.70
11704;DHT22;5908;51.354;7.458;2023-06-22T05:14:15;23.50;91.60
11704;DHT22;5908;51.354;7.458;2023-06-22T05:16:43;23.60;91.40
11704;DHT22;5908;51.354;7.458;2023-06-22T05:19:10;23.70;91.20
11704;DHT22;5908;51.354;7.458;2023-06-22T05:21:37;23.70;91.10
11704;DHT22;5908;51.354;7.458;2023-06-22T05:24:04;23.70;91.10
11704;DHT22;5908;51.354;7.458;2023-06-22T05:26:32;23.70;91.30
11704;DHT22;5908;51.354;7.458;2023-06-22T05:29:02;23.80;91.00
11704;DHT22;5908;51.354;7.458;2023-06-22T05:31:29;23.90;90.70
11704;DHT22;5908;51.354;7.458;2023-06-22T05:33:56;24.00;90.70
11704;DHT22;5908;51.354;7.458;2023-06-22T05:36:23;24.10;90.60
11704;DHT22;5908;51.354;7.458;2023-06-22T05:38:51;24.30;90.30
11704;DHT22;5908;51.354;7.458;2023-06-22T05:41:18;24.50;90.00
11704;DHT22;5908;51.354;7.458;2023-06-22T05:43:45;24.20;90.40
11704;DHT22;5908;51.354;7.458;2023-06-22T05:46:13;24.10;90.60
11704;DHT22;5908;51.354;7.458;2023-06-22T05:48:39;24.10;90.80
11704;DHT22;5908;51.354;7.458;2023-06-22T05:51:06;24.10;90.90
11704;DHT22;5908;51.354;7.458;2023-06-22T05:53:33;24.30;90.60
11704;DHT22;5908;51.354;7.458;2023-06-22T05:55:59;24.40;90.50
11704;DHT22;5908;51.354;7.458;2023-06-22T05:58:26;24.30;90.60
11704;DHT22;5908;51.354;7.458;2023-06-22T06:00:53;24.10;91.00
11704;DHT22;5908;51.354;7.458;2023-06-22T06:03:21;24.10;91.20
11704;DHT22;5908;51.354;7.458;2023-06-22T06:05:48;24.00;91.40
11704;DHT22;5908;51.354;7.458;2023-06-22T06:08:15;23.90;91.70
11704;DHT22;5908;51.354;7.458;2023-06-22T06:10:42;23.80;92.00
11704;DHT22;5908;51.354;7.458;2023-06-22T06:13:08;23.60;95.20
11704;DHT22;5908;51.354;7.458;2023-06-22T06:15:35;23.50;94.10
11704;DHT22;5908;51.354;7.458;2023-06-22T06:18:02;23.40;95.40
11704;DHT22;5908;51.354;7.458;2023-06-22T06:20:32;23.40;95.50
11704;DHT22;5908;51.354;7.458;2023-06-22T06:22:58;23.70;94.40
11704;DHT22;5908;51.354;7.458;2023-06-22T06:25:25;24.70;92.80
11704;DHT22;5908;51.354;7.458;2023-06-22T06:27:52;24.80;92.40
11704;DHT22;5908;51.354;7.458;2023-06-22T06:30:19;24.90;92.40
11704;DHT22;5908;51.354;7.458;2023-06-22T06:32:47;25.10;92.20
11704;DHT22;5908;51.354;7.458;2023-06-22T06:35:15;25.30;91.90
11704;DHT22;5908;51.354;7.458;2023-06-22T06:37:45;25.60;91.50
11704;DHT22;5908;51.354;7.458;2023-06-22T06:40:13;25.80;91.20
11704;DHT22;5908;51.354;7.458;2023-06-22T06:42:41;26.10;90.90
11704;DHT22;5908;51.354;7.458;2023-06-22T06:45:11;26.10;90.60
11704;DHT22;5908;51.354;7.458;2023-06-22T06:47:38;26.00;90.90
11704;DHT22;5908;51.354;7.458;2023-06-22T06:50:06;25.90;91.20
11704;DHT22;5908;51.354;7.458;2023-06-22T06:52:33;25.90;91.20
11704;DHT22;5908;51.354;7.458;2023-06-22T06:55:01;25.90;91.30
11704;DHT22;5908;51.354;7.458;2023-06-22T06:57:30;26.00;91.40
11704;DHT22;5908;51.354;7.458;2023-06-22T06:59:56;26.00;91.40
11704;DHT22;5908;51.354;7.458;2023-06-22T07:02:23;25.90;91.50
11704;DHT22;5908;51.354;7.458;2023-06-22T07:04:50;25.80;91.80
11704;DHT22;5908;51.354;7.458;2023-06-22T07:07:17;25.40;92.40
11704;DHT22;5908;51.354;7.458;2023-06-22T07:09:43;25.30;92.60
11704;DHT22;5908;51.354;7.458;2023-06-22T07:12:11;25.20;92.90
11704;DHT22;5908;51.354;7.458;2023-06-22T07:14:38;25.10;93.10
11704;DHT22;5908;51.354;7.458;2023-06-22T07:17:05;25.00;93.60
11704;DHT22;5908;51.354;7.458;2023-06-22T07:19:32;24.90;93.80
11704;DHT22;5908;51.354;7.458;2023-06-22T07:21:59;24.80;93.80
11704;DHT22;5908;51.354;7.458;2023-06-22T07:24:25;24.70;94.00
11704;DHT22;5908;51.354;7.458;2023-06-22T07:26:52;24.80;94.20
11704;DHT22;5908;51.354;7.458;2023-06-22T07:29:21;25.20;93.80
11704;DHT22;5908;51.354;7.458;2023-06-22T07:31:48;25.30;93.60
11704;DHT22;5908;51.354;7.458;2023-06-22T07:34:17;25.60;93.30
11704;DHT22;5908;51.354;7.458;2023-06-22T07:36:44;25.90;92.70
11704;DHT22;5908;51.354;7.458;2023-06-22T07:39:11;26.00;92.20
11704;DHT22;5908;51.354;7.458;2023-06-22T07:41:39;26.20;92.10
11704;DHT22;5908;51.354;7.458;2023-06-22T07:44:07;26.30;91.60
11704;DHT22;5908;51.354;7.458;2023-06-22T07:46:35;26.40;91.60
11704;DHT22;5908;51.354;7.458;2023-06-22T07:49:02;26.30;91.70
11704;DHT22;5908;51.354;7.458;2023-06-22T07:51:29;26.40;91.80
11704;DHT22;5908;51.354;7.458;2023-06-22T07:53:55;26.20;91.90
11704;DHT22;5908;51.354;7.458;2023-06-22T07:56:22;26.30;91.90
11704;DHT22;5908;51.354;7.458;2023-06-22T07:58:49;26.30;92.20
11704;DHT22;5908;51.354;7.458;2023-06-22T08:01:16;26.20;92.30
11704;DHT22;5908;51.354;7.458;2023-06-22T08:03:47;26.20;92.50
11704;DHT22;5908;51.354;7.458;2023-06-22T08:06:14;26.60;92.20
11704;DHT22;5908;51.354;7.458;2023-06-22T08:08:42;27.20;91.50
11704;DHT22;5908;51.354;7.458;2023-06-22T08:11:09;27.60;90.80
11704;DHT22;5908;51.354;7.458;2023-06-22T08:13:36;28.00;90.00
11704;DHT22;5908;51.354;7.458;2023-06-22T08:16:03;28.10;89.00
11704;DHT22;5908;51.354;7.458;2023-06-22T08:18:32;28.20;89.30
11704;DHT22;5908;51.354;7.458;2023-06-22T08:21:00;28.70;87.80
11704;DHT22;5908;51.354;7.458;2023-06-22T08:23:27;28.70;88.10
11704;DHT22;5908;51.354;7.458;2023-06-22T08:25:54;28.80;87.30
11704;DHT22;5908;51.354;7.458;2023-06-22T08:28:22;28.60;88.20
11704;DHT22;5908;51.354;7.458;2023-06-22T08:30:48;28.50;88.30
11704;DHT22;5908;51.354;7.458;2023-06-22T08:33:15;28.30;88.90
11704;DHT22;5908;51.354;7.458;2023-06-22T08:35:43;28.20;89.60
11704;DHT22;5908;51.354;7.458;2023-06-22T08:38:11;28.20;90.20
11704;DHT22;5908;51.354;7.458;2023-06-22T08:40:41;28.30;89.70
11704;DHT22;5908;51.354;7.458;2023-06-22T08:43:07;28.30;90.00
11704;DHT22;5908;51.354;7.458;2023-06-22T08:45:34;28.40;90.00
11704;DHT22;5908;51.354;7.458;2023-06-22T08:48:01;28.60;89.60
11704;DHT22;5908;51.354;7.458;2023-06-22T08:50:28;28.70;89.20
11704;DHT22;5908;51.354;7.458;2023-06-22T08:52:54;28.60;89.60
11704;DHT22;5908;51.354;7.458;2023-06-22T08:55:23;28.60;89.40
11704;DHT22;5908;51.354;7.458;2023-06-22T08:57:49;28.70;89.30
11704;DHT22;5908;51.354;7.458;2023-06-22T09:00:17;28.70;89.20
11704;DHT22;5908;51.354;7.458;2023-06-22T09:02:46;28.50;90.10
11704;DHT22;5908;51.354;7.458;2023-06-22T09:05:13;28.40;90.40
11704;DHT22;5908;51.354;7.458;2023-06-22T09:07:40;28.40;90.90
11704;DHT22;5908;51.354;7.458;2023-06-22T09:10:08;28.40;90.90
11704;DHT22;5908;51.354;7.458;2023-06-22T09:12:36;28.20;91.30
11704;DHT22;5908;51.354;7.458;2023-06-22T09:15:04;28.20;92.10
11704;DHT22;5908;51.354;7.458;2023-06-22T09:17:33;28.30;91.50
11704;DHT22;5908;51.354;7.458;2023-06-22T09:19:59;28.30;92.00
11704;DHT22;5908;51.354;7.458;2023-06-22T09:22:27;28.30;92.30
11704;DHT22;5908;51.354;7.458;2023-06-22T09:24:54;28.40;92.10
11704;DHT22;5908;51.354;7.458;2023-06-22T09:27:21;28.20;92.60
11704;DHT22;5908;51.354;7.458;2023-06-22T09:29:50;28.20;92.50
11704;DHT22;5908;51.354;7.458;2023-06-22T09:32:17;28.20;91.50
11704;DHT22;5908;51.354;7.458;2023-06-22T09:34:44;28.20;91.30
11704;DHT22;5908;51.354;7.458;2023-06-22T09:37:10;28.20;90.70
11704;DHT22;5908;51.354;7.458;2023-06-22T09:39:37;28.20;90.70
11704;DHT22;5908;51.354;7.458;2023-06-22T09:42:05;28.50;90.60
11704;DHT22;5908;51.354;7.458;2023-06-22T09:44:32;28.80;90.40
11704;DHT22;5908;51.354;7.458;2023-06-22T09:47:00;29.20;90.00
11704;DHT22;5908;51.354;7.458;2023-06-22T09:49:27;29.60;85.20
11704;DHT22;5908;51.354;7.458;2023-06-22T09:51:53;29.70;84.80
11704;DHT22;5908;51.354;7.458;2023-06-22T09:54:20;29.70;85.50
11704;DHT22;5908;51.354;7.458;2023-06-22T09:56:48;30.00;85.30
11704;DHT22;5908;51.354;7.458;2023-06-22T09:59:14;30.30;84.30
11704;DHT22;5908;51.354;7.458;2023-06-22T10:01:41;30.60;82.90
11704;DHT22;5908;51.354;7.458;2023-06-22T10:04:09;30.90;82.70
11704;DHT22;5908;51.354;7.458;2023-06-22T10:06:36;31.00;81.40
11704;DHT22;5908;51.354;7.458;2023-06-22T10:09:06;31.10;80.80
11704;DHT22;5908;51.354;7.458;2023-06-22T10:11:33;31.30;80.50
11704;DHT22;5908;51.354;7.458;2023-06-22T10:14:00;31.50;80.10
11704;DHT22;5908;51.354;7.458;2023-06-22T10:16:30;31.40;80.50
11704;DHT22;5908;51.354;7.458;2023-06-22T10:18:57;31.40;81.10
11704;DHT22;5908;51.354;7.458;2023-06-22T10:21:25;31.60;81.00
11704;DHT22;5908;51.354;7.458;2023-06-22T10:23:53;31.70;80.70
11704;DHT22;5908;51.354;7.458;2023-06-22T10:26:20;31.60;81.00
11704;DHT22;5908;51.354;7.458;2023-06-22T10:28:47;31.60;80.80
11704;DHT22;5908;51.354;7.458;2023-06-22T10:31:14;31.70;80.30
11704;DHT22;5908;51.354;7.458;2023-06-22T10:33:42;31.60;80.40
11704;DHT22;5908;51.354;7.458;2023-06-22T10:36:09;31.50;80.30
11704;DHT22;5908;51.354;7.458;2023-06-22T10:38:37;31.30;81.20
11704;DHT22;5908;51.354;7.458;2023-06-22T10:41:04;31.10;82.30
11704;DHT22;5908;51.354;7.458;2023-06-22T10:43:31;30.80;82.40
11704;DHT22;5908;51.354;7.458;2023-06-22T10:45:58;30.60;83.20
11704;DHT22;5908;51.354;7.458;2023-06-22T10:48:25;30.30;84.80
11704;DHT22;5908;51.354;7.458;2023-06-22T10:50:51;30.10;85.70
11704;DHT22;5908;51.354;7.458;2023-06-22T10:53:18;29.80;86.50
11704;DHT22;5908;51.354;7.458;2023-06-22T10:55:47;29.50;87.70
11704;DHT22;5908;51.354;7.458;2023-06-22T10:58:14;29.30;88.50
11704;DHT22;5908;51.354;7.458;2023-06-22T11:00:40;29.00;89.80
11704;DHT22;5908;51.354;7.458;2023-06-22T11:03:07;28.80;90.20
11704;DHT22;5908;51.354;7.458;2023-06-22T11:05:34;28.80;90.60
11704;DHT22;5908;51.354;7.458;2023-06-22T11:08:01;28.20;92.50
11704;DHT22;5908;51.354;7.458;2023-06-22T11:10:28;26.90;99.90
11704;DHT22;5908;51.354;7.458;2023-06-22T11:12:56;26.20;99.90
11704;DHT22;5908;51.354;7.458;2023-06-22T11:15:23;26.00;99.90
11704;DHT22;5908;51.354;7.458;2023-06-22T11:17:50;25.70;99.90
11704;DHT22;5908;51.354;7.458;2023-06-22T11:20:17;25.30;99.90
11704;DHT22;5908;51.354;7.458;2023-06-22T11:22:43;25.20;99.90
11704;DHT22;5908;51.354;7.458;2023-06-22T11:25:10;24.50;99.90
11704;DHT22;5908;51.354;7.458;2023-06-22T11:27:38;24.00;99.90
11704;DHT22;5908;51.354;7.458;2023-06-22T11:30:07;24.50;99.90
11704;DHT22;5908;51.354;7.458;2023-06-22T11:32:34;24.30;99.90
11704;DHT22;5908;51.354;7.458;2023-06-22T11:35:01;23.70;99.90
11704;DHT22;5908;51.354;7.458;2023-06-22T11:37:28;23.70;99.90
11704;DHT22;5908;51.354;7.458;2023-06-22T11:39:55;23.60;99.90
11704;DHT22;5908;51.354;7.458;2023-06-22T11:42:21;23.60;99.90
11704;DHT22;5908;51.354;7.458;2023-06-22T11:44:50;23.40;99.90
11704;DHT22;5908;51.354;7.458;2023-06-22T11:47:19;23.40;99.90
11704;DHT22;5908;51.354;7.458;2023-06-22T11:49:45;23.10;99.90
11704;DHT22;5908;51.354;7.458;2023-06-22T11:52:12;23.10;99.90
11704;DHT22;5908;51.354;7.458;2023-06-22T11:54:39;23.00;99.90
11704;DHT22;5908;51.354;7.458;2023-06-22T11:57:05;22.90;99.90
11704;DHT22;5908;51.354;7.458;2023-06-22T11:59:32;22.70;99.90
11704;DHT22;5908;51.354;7.458;2023-06-22T12:01:59;22.80;99.90
11704;DHT22;5908;51.354;7.458;2023-06-22T12:04:27;22.90;99.90
11704;DHT22;5908;51.354;7.458;2023-06-22T12:06:54;22.80;99.90
11704;DHT22;5908;51.354;7.458;2023-06-22T12:09:21;22.70;99.90
11704;DHT22;5908;51.354;7.458;2023-06-22T12:11:47;22.60;99.90
11704;DHT22;5908;51.354;7.458;2023-06-22T12:14:14;22.60;99.90
11704;DHT22;5908;51.354;7.458;2023-06-22T12:16:41;22.50;99.90
11704;DHT22;5908;51.354;7.458;2023-06-22T12:19:09;22.60;99.90
11704;DHT22;5908;51.354;7.458;2023-06-22T12:21:38;22.80;99.90
11704;DHT22;5908;51.354;7.458;2023-06-22T12:24:06;23.10;99.90
11704;DHT22;5908;51.354;7.458;2023-06-22T12:26:33;21.70;99.90
11704;DHT22;5908;51.354;7.458;2023-06-22T12:28:59;22.80;99.90
11704;DHT22;5908;51.354;7.458;2023-06-22T12:31:26;19.50;99.90
11704;DHT22;5908;51.354;7.458;2023-06-22T12:33:53;22.10;99.90
11704;DHT22;5908;51.354;7.458;2023-06-22T12:36:20;20.50;99.90
11704;DHT22;5908;51.354;7.458;2023-06-22T12:38:48;23.40;99.90
11704;DHT22;5908;51.354;7.458;2023-06-22T12:41:15;21.80;99.90
11704;DHT22;5908;51.354;7.458;2023-06-22T12:43:42;24.10;99.90
11704;DHT22;5908;51.354;7.458;2023-06-22T12:46:08;24.50;99.90
11704;DHT22;5908;51.354;7.458;2023-06-22T12:48:35;23.10;99.90
11704;DHT22;5908;51.354;7.458;2023-06-22T12:51:07;24.00;99.90
11704;DHT22;5908;51.354;7.458;2023-06-22T12:53:33;23.50;99.90
11704;DHT22;5908;51.354;7.458;2023-06-22T12:56:02;22.80;99.90
11704;DHT22;5908;51.354;7.458;2023-06-22T12:58:29;24.90;99.90
11704;DHT22;5908;51.354;7.458;2023-06-22T13:00:56;24.60;99.90
11704;DHT22;5908;51.354;7.458;2023-06-22T13:03:22;24.10;99.90
11704;DHT22;5908;51.354;7.458;2023-06-22T13:05:51;24.10;99.90
11704;DHT22;5908;51.354;7.458;2023-06-22T13:08:18;23.80;99.90
11704;DHT22;5908;51.354;7.458;2023-06-22T13:10:44;23.70;99.90
11704;DHT22;5908;51.354;7.458;2023-06-22T13:13:12;23.40;99.90
11704;DHT22;5908;51.354;7.458;2023-06-22T13:15:39;23.20;99.90
11704;DHT22;5908;51.354;7.458;2023-06-22T13:18:06;23.60;99.90
11704;DHT22;5908;51.354;7.458;2023-06-22T13:20:33;23.50;99.90
11704;DHT22;5908;51.354;7.458;2023-06-22T13:23:00;23.90;99.90
11704;DHT22;5908;51.354;7.458;2023-06-22T13:25:26;24.00;99.90
11704;DHT22;5908;51.354;7.458;2023-06-22T13:27:53;24.10;99.90
11704;DHT22;5908;51.354;7.458;2023-06-22T13:30:21;24.60;99.90
11704;DHT22;5908;51.354;7.458;2023-06-22T13:32:48;24.40;99.90
11704;DHT22;5908;51.354;7.458;2023-06-22T13:35:15;24.50;99.90
11704;DHT22;5908;51.354;7.458;2023-06-22T13:37:42;24.50;99.90
11704;DHT22;5908;51.354;7.458;2023-06-22T13:40:09;24.40;99.90
11704;DHT22;5908;51.354;7.458;2023-06-22T13:42:35;24.40;99.90
11704;DHT22;5908;51.354;7.458;2023-06-22T13:45:03;24.30;99.90
11704;DHT22;5908;51.354;7.458;2023-06-22T13:47:31;24.40;99.90
11704;DHT22;5908;51.354;7.458;2023-06-22T13:49:58;24.20;99.90
11704;DHT22;5908;51.354;7.458;2023-06-22T13:52:25;24.40;99.90
11704;DHT22;5908;51.354;7.458;2023-06-22T13:54:52;24.30;99.90
11704;DHT22;5908;51.354;7.458;2023-06-22T13:57:18;24.50;99.90
11704;DHT22;5908;51.354;7.458;2023-06-22T13:59:45;24.80;99.90
11704;DHT22;5908;51.354;7.458;2023-06-22T14:02:12;25.10;99.90
11704;DHT22;5908;51.354;7.458;2023-06-22T14:04:40;25.40;99.90
11704;DHT22;5908;51.354;7.458;2023-06-22T14:07:07;25.40;99.90
11704;DHT22;5908;51.354;7.458;2023-06-22T14:09:34;25.30;99.90
11704;DHT22;5908;51.354;7.458;2023-06-22T14:12:03;25.30;99.90
11704;DHT22;5908;51.354;7.458;2023-06-22T14:14:30;25.60;99.90
11704;DHT22;5908;51.354;7.458;2023-06-22T14:16:57;25.70;99.90
11704;DHT22;5908;51.354;7.458;2023-06-22T14:19:24;25.80;99.90
11704;DHT22;5908;51.354;7.458;2023-06-22T14:21:52;25.70;99.90
11704;DHT22;5908;51.354;7.458;2023-06-22T14:24:19;25.90;99.90
11704;DHT22;5908;51.354;7.458;2023-06-22T14:26:45;25.90;99.90
11704;DHT22;5908;51.354;7.458;2023-06-22T14:29:12;26.30;99.90
11704;DHT22;5908;51.354;7.458;2023-06-22T14:31:39;26.40;99.90
11704;DHT22;5908;51.354;7.458;2023-06-22T14:34:05;26.90;99.90
11704;DHT22;5908;51.354;7.458;2023-06-22T14:36:32;27.40;99.90
11704;DHT22;5908;51.354;7.458;2023-06-22T14:39:01;27.40;99.90
11704;DHT22;5908;51.354;7.458;2023-06-22T14:41:29;27.50;99.90
11704;DHT22;5908;51.354;7.458;2023-06-22T14:43:56;27.40;99.90
11704;DHT22;5908;51.354;7.458;2023-06-22T14:46:23;27.10;99.90
11704;DHT22;5908;51.354;7.458;2023-06-22T14:48:50;27.00;99.90
11704;DHT22;5908;51.354;7.458;2023-06-22T14:51:16;26.80;99.90
11704;DHT22;5908;51.354;7.458;2023-06-22T14:53:44;27.00;99.90
11704;DHT22;5908;51.354;7.458;2023-06-22T14:56:12;27.50;99.90
11704;DHT22;5908;51.354;7.458;2023-06-22T14:58:41;27.60;99.90
11704;DHT22;5908;51.354;7.458;2023-06-22T15:01:11;27.60;99.90
11704;DHT22;5908;51.354;7.458;2023-06-22T15:03:38;27.80;99.90
11704;DHT22;5908;51.354;7.458;2023-06-22T15:06:05;28.10;99.90
11704;DHT22;5908;51.354;7.458;2023-06-22T15:08:31;28.10;99.90
11704;DHT22;5908;51.354;7.458;2023-06-22T15:10:59;28.00;99.90
11704;DHT22;5908;51.354;7.458;2023-06-22T15:13:29;27.70;99.90
11704;DHT22;5908;51.354;7.458;2023-06-22T15:15:58;27.20;99.90
11704;DHT22;5908;51.354;7.458;2023-06-22T15:18:24;26.60;99.90
11704;DHT22;5908;51.354;7.458;2023-06-22T15:20:51;26.20;99.90
11704;DHT22;5908;51.354;7.458;2023-06-22T15:23:18;25.90;99.90
11704;DHT22;5908;51.354;7.458;2023-06-22T15:25:45;25.70;99.90
11704;DHT22;5908;51.354;7.458;2023-06-22T15:28:12;25.40;99.90
11704;DHT22;5908;51.354;7.458;2023-06-22T15:30:40;25.10;99.90
11704;DHT22;5908;51.354;7.458;2023-06-22T15:33:07;24.90;99.90
11704;DHT22;5908;51.354;7.458;2023-06-22T15:35:35;24.60;99.90
11704;DHT22;5908;51.354;7.458;2023-06-22T15:38:02;23.30;99.90
11704;DHT22;5908;51.354;7.458;2023-06-22T15:40:28;22.30;99.90
11704;DHT22;5908;51.354;7.458;2023-06-22T15:42:56;22.10;99.90
11704;DHT22;5908;51.354;7.458;2023-06-22T15:45:23;22.10;99.90